Terminal Aerodrome Forecast
Issued by NWS Sterling, VA

Current Version | Previous Version | Text Only | Print | Product List | Glossary Off
Versions: 1 2 3 4 5 6 7 8 9 10 11 12 13 14 15 16 17 18

592
FTUS41 KLWX 252157 AAB
TAFMRB
TAF AMD
KMRB 252157Z 2522/2618 VRB03KT 6SM -SHRA VCTS BKN035CB
      TEMPO 2522/2523 2SM TSRA BR
     FM260000 25008KT P6SM BKN050
     FM261400 29012G22KT P6SM BKN050=

USA.gov is the U.S. government's official web portal to all federal, state and local government web resources and services.